sensor_id;sensor_type;location;lat;lon;timestamp;P1;durP1;ratioP1;P2;durP2;ratioP2
67544;SDS011;54380;47.770;11.150;2023-03-23T00:02:19;7.68;;;1.20;;
67544;SDS011;54380;47.770;11.150;2023-03-23T00:04:48;7.43;;;1.52;;
67544;SDS011;54380;47.770;11.150;2023-03-23T00:07:14;6.88;;;1.00;;
67544;SDS011;54380;47.770;11.150;2023-03-23T00:09:46;6.35;;;1.30;;
67544;SDS011;54380;47.770;11.150;2023-03-23T00:12:13;7.97;;;0.90;;
67544;SDS011;54380;47.770;11.150;2023-03-23T00:14:40;11.68;;;1.58;;
67544;SDS011;54380;47.770;11.150;2023-03-23T00:17:07;8.73;;;1.58;;
67544;SDS011;54380;47.770;11.150;2023-03-23T00:19:35;5.65;;;0.90;;
67544;SDS011;54380;47.770;11.150;2023-03-23T00:22:11;4.65;;;0.82;;
67544;SDS011;54380;47.770;11.150;2023-03-23T00:24:37;8.23;;;1.10;;
67544;SDS011;54380;47.770;11.150;2023-03-23T00:27:03;8.68;;;1.10;;
67544;SDS011;54380;47.770;11.150;2023-03-23T00:29:31;6.03;;;1.42;;
67544;SDS011;54380;47.770;11.150;2023-03-23T00:31:57;6.43;;;1.40;;
67544;SDS011;54380;47.770;11.150;2023-03-23T00:34:23;6.82;;;0.88;;
67544;SDS011;54380;47.770;11.150;2023-03-23T00:36:50;5.57;;;1.02;;
67544;SDS011;54380;47.770;11.150;2023-03-23T00:39:18;6.95;;;1.05;;
67544;SDS011;54380;47.770;11.150;2023-03-23T00:41:46;6.70;;;0.95;;
67544;SDS011;54380;47.770;11.150;2023-03-23T00:44:13;4.88;;;0.98;;
67544;SDS011;54380;47.770;11.150;2023-03-23T00:46:43;4.55;;;0.73;;
67544;SDS011;54380;47.770;11.150;2023-03-23T00:49:09;7.00;;;1.15;;
67544;SDS011;54380;47.770;11.150;2023-03-23T00:51:37;5.90;;;0.70;;
67544;SDS011;54380;47.770;11.150;2023-03-23T00:54:03;6.28;;;0.70;;
67544;SDS011;54380;47.770;11.150;2023-03-23T00:56:28;5.07;;;0.82;;
67544;SDS011;54380;47.770;11.150;2023-03-23T00:58:54;5.60;;;0.75;;
67544;SDS011;54380;47.770;11.150;2023-03-23T01:01:20;6.45;;;0.90;;
67544;SDS011;54380;47.770;11.150;2023-03-23T01:03:47;5.63;;;0.80;;
67544;SDS011;54380;47.770;11.150;2023-03-23T01:06:12;4.68;;;0.63;;
67544;SDS011;54380;47.770;11.150;2023-03-23T01:08:41;7.18;;;0.88;;
67544;SDS011;54380;47.770;11.150;2023-03-23T01:11:11;4.88;;;0.70;;
67544;SDS011;54380;47.770;11.150;2023-03-23T01:13:39;6.80;;;0.98;;
67544;SDS011;54380;47.770;11.150;2023-03-23T01:16:07;6.00;;;0.80;;
67544;SDS011;54380;47.770;11.150;2023-03-23T01:18:33;6.57;;;0.82;;
67544;SDS011;54380;47.770;11.150;2023-03-23T01:21:04;4.97;;;0.60;;
67544;SDS011;54380;47.770;11.150;2023-03-23T01:23:31;4.32;;;0.65;;
67544;SDS011;54380;47.770;11.150;2023-03-23T01:25:57;7.70;;;0.75;;
67544;SDS011;54380;47.770;11.150;2023-03-23T01:28:27;4.60;;;0.63;;
67544;SDS011;54380;47.770;11.150;2023-03-23T01:30:52;3.45;;;0.50;;
67544;SDS011;54380;47.770;11.150;2023-03-23T01:33:18;4.63;;;0.82;;
67544;SDS011;54380;47.770;11.150;2023-03-23T01:35:44;3.60;;;0.63;;
67544;SDS011;54380;47.770;11.150;2023-03-23T01:38:11;5.20;;;0.98;;
67544;SDS011;54380;47.770;11.150;2023-03-23T01:40:37;5.03;;;0.77;;
67544;SDS011;54380;47.770;11.150;2023-03-23T01:43:07;4.53;;;0.85;;
67544;SDS011;54380;47.770;11.150;2023-03-23T01:45:38;6.40;;;1.10;;
67544;SDS011;54380;47.770;11.150;2023-03-23T01:48:07;3.83;;;0.50;;
67544;SDS011;54380;47.770;11.150;2023-03-23T01:50:40;4.95;;;0.80;;
67544;SDS011;54380;47.770;11.150;2023-03-23T01:53:13;7.40;;;0.77;;
67544;SDS011;54380;47.770;11.150;2023-03-23T01:55:40;4.22;;;0.65;;
67544;SDS011;54380;47.770;11.150;2023-03-23T01:58:08;6.18;;;0.93;;
67544;SDS011;54380;47.770;11.150;2023-03-23T02:00:36;4.53;;;0.93;;
67544;SDS011;54380;47.770;11.150;2023-03-23T02:03:08;3.40;;;0.50;;
67544;SDS011;54380;47.770;11.150;2023-03-23T02:05:36;3.78;;;0.82;;
67544;SDS011;54380;47.770;11.150;2023-03-23T02:08:10;4.82;;;0.65;;
67544;SDS011;54380;47.770;11.150;2023-03-23T02:10:41;4.85;;;1.05;;
67544;SDS011;54380;47.770;11.150;2023-03-23T02:13:08;5.65;;;0.85;;
67544;SDS011;54380;47.770;11.150;2023-03-23T02:15:45;5.85;;;0.73;;
67544;SDS011;54380;47.770;11.150;2023-03-23T02:18:17;6.05;;;0.93;;
67544;SDS011;54380;47.770;11.150;2023-03-23T02:24:01;6.10;;;0.65;;
67544;SDS011;54380;47.770;11.150;2023-03-23T02:29:30;7.55;;;0.70;;
67544;SDS011;54380;47.770;11.150;2023-03-23T02:32:11;5.60;;;0.88;;
67544;SDS011;54380;47.770;11.150;2023-03-23T02:34:46;7.30;;;0.90;;
67544;SDS011;54380;47.770;11.150;2023-03-23T02:37:15;4.15;;;0.75;;
67544;SDS011;54380;47.770;11.150;2023-03-23T02:39:49;5.45;;;1.40;;
67544;SDS011;54380;47.770;11.150;2023-03-23T02:42:20;3.30;;;0.55;;
67544;SDS011;54380;47.770;11.150;2023-03-23T02:44:48;5.03;;;0.80;;
67544;SDS011;54380;47.770;11.150;2023-03-23T02:47:18;6.80;;;0.70;;
67544;SDS011;54380;47.770;11.150;2023-03-23T02:49:50;4.82;;;0.60;;
67544;SDS011;54380;47.770;11.150;2023-03-23T02:52:19;6.95;;;0.70;;
67544;SDS011;54380;47.770;11.150;2023-03-23T02:54:49;4.93;;;0.85;;
67544;SDS011;54380;47.770;11.150;2023-03-23T02:57:18;5.40;;;0.77;;
67544;SDS011;54380;47.770;11.150;2023-03-23T02:59:45;5.40;;;0.93;;
67544;SDS011;54380;47.770;11.150;2023-03-23T03:02:11;4.60;;;0.60;;
67544;SDS011;54380;47.770;11.150;2023-03-23T03:04:40;6.28;;;0.77;;
67544;SDS011;54380;47.770;11.150;2023-03-23T03:10:06;4.45;;;0.70;;
67544;SDS011;54380;47.770;11.150;2023-03-23T03:12:41;6.55;;;1.20;;
67544;SDS011;54380;47.770;11.150;2023-03-23T03:15:13;6.35;;;0.80;;
67544;SDS011;54380;47.770;11.150;2023-03-23T03:17:51;4.57;;;0.50;;
67544;SDS011;54380;47.770;11.150;2023-03-23T03:20:23;4.88;;;1.00;;
67544;SDS011;54380;47.770;11.150;2023-03-23T03:22:53;5.00;;;0.73;;
67544;SDS011;54380;47.770;11.150;2023-03-23T03:25:21;4.18;;;0.65;;
67544;SDS011;54380;47.770;11.150;2023-03-23T03:27:49;4.68;;;0.63;;
67544;SDS011;54380;47.770;11.150;2023-03-23T03:30:25;6.70;;;1.10;;
67544;SDS011;54380;47.770;11.150;2023-03-23T03:32:57;4.65;;;0.65;;
67544;SDS011;54380;47.770;11.150;2023-03-23T03:35:26;6.70;;;0.73;;
67544;SDS011;54380;47.770;11.150;2023-03-23T03:37:54;5.47;;;0.63;;
67544;SDS011;54380;47.770;11.150;2023-03-23T03:40:21;5.28;;;1.05;;
67544;SDS011;54380;47.770;11.150;2023-03-23T03:42:49;7.03;;;1.17;;
67544;SDS011;54380;47.770;11.150;2023-03-23T03:45:15;4.43;;;0.82;;
67544;SDS011;54380;47.770;11.150;2023-03-23T03:47:43;3.95;;;0.47;;
67544;SDS011;54380;47.770;11.150;2023-03-23T03:50:10;4.97;;;0.68;;
67544;SDS011;54380;47.770;11.150;2023-03-23T03:52:36;5.30;;;0.75;;
67544;SDS011;54380;47.770;11.150;2023-03-23T03:55:05;4.57;;;0.85;;
67544;SDS011;54380;47.770;11.150;2023-03-23T03:57:33;6.07;;;1.08;;
67544;SDS011;54380;47.770;11.150;2023-03-23T04:00:11;3.17;;;0.52;;
67544;SDS011;54380;47.770;11.150;2023-03-23T04:02:44;4.85;;;0.75;;
67544;SDS011;54380;47.770;11.150;2023-03-23T04:05:19;6.15;;;0.65;;
67544;SDS011;54380;47.770;11.150;2023-03-23T04:07:47;5.13;;;0.82;;
67544;SDS011;54380;47.770;11.150;2023-03-23T04:10:19;6.00;;;0.93;;
67544;SDS011;54380;47.770;11.150;2023-03-23T04:12:53;6.68;;;0.82;;
67544;SDS011;54380;47.770;11.150;2023-03-23T04:15:18;7.40;;;1.40;;
67544;SDS011;54380;47.770;11.150;2023-03-23T04:17:46;5.72;;;1.10;;
67544;SDS011;54380;47.770;11.150;2023-03-23T04:20:12;5.18;;;0.85;;
67544;SDS011;54380;47.770;11.150;2023-03-23T04:22:46;4.82;;;0.75;;
67544;SDS011;54380;47.770;11.150;2023-03-23T04:25:19;3.20;;;0.52;;
67544;SDS011;54380;47.770;11.150;2023-03-23T04:27:48;4.43;;;0.63;;
67544;SDS011;54380;47.770;11.150;2023-03-23T04:30:19;6.55;;;1.13;;
67544;SDS011;54380;47.770;11.150;2023-03-23T04:32:54;7.22;;;1.67;;
67544;SDS011;54380;47.770;11.150;2023-03-23T04:35:24;7.80;;;0.90;;
67544;SDS011;54380;47.770;11.150;2023-03-23T04:38:02;5.82;;;1.08;;
67544;SDS011;54380;47.770;11.150;2023-03-23T04:40:29;5.40;;;0.82;;
67544;SDS011;54380;47.770;11.150;2023-03-23T04:43:10;9.60;;;1.85;;
67544;SDS011;54380;47.770;11.150;2023-03-23T04:45:59;7.53;;;1.52;;
67544;SDS011;54380;47.770;11.150;2023-03-23T04:48:29;6.28;;;1.00;;
67544;SDS011;54380;47.770;11.150;2023-03-23T04:51:06;6.22;;;1.02;;
67544;SDS011;54380;47.770;11.150;2023-03-23T04:53:32;18.15;;;1.35;;
67544;SDS011;54380;47.770;11.150;2023-03-23T04:56:00;6.95;;;1.13;;
67544;SDS011;54380;47.770;11.150;2023-03-23T04:58:31;7.18;;;1.52;;
67544;SDS011;54380;47.770;11.150;2023-03-23T05:01:17;8.13;;;2.03;;
67544;SDS011;54380;47.770;11.150;2023-03-23T05:04:18;6.47;;;1.13;;
67544;SDS011;54380;47.770;11.150;2023-03-23T05:06:58;7.40;;;1.50;;
67544;SDS011;54380;47.770;11.150;2023-03-23T05:11:55;9.15;;;2.13;;
67544;SDS011;54380;47.770;11.150;2023-03-23T05:14:21;8.27;;;0.93;;
67544;SDS011;54380;47.770;11.150;2023-03-23T05:16:58;6.15;;;0.90;;
67544;SDS011;54380;47.770;11.150;2023-03-23T05:19:24;6.38;;;0.65;;
67544;SDS011;54380;47.770;11.150;2023-03-23T05:21:52;6.97;;;1.05;;
67544;SDS011;54380;47.770;11.150;2023-03-23T05:24:19;6.00;;;0.88;;
67544;SDS011;54380;47.770;11.150;2023-03-23T05:26:45;7.85;;;1.50;;
67544;SDS011;54380;47.770;11.150;2023-03-23T05:29:19;5.65;;;1.15;;
67544;SDS011;54380;47.770;11.150;2023-03-23T05:31:55;4.82;;;0.80;;
67544;SDS011;54380;47.770;11.150;2023-03-23T05:34:22;8.57;;;1.90;;
67544;SDS011;54380;47.770;11.150;2023-03-23T05:39:50;3.95;;;0.77;;
67544;SDS011;54380;47.770;11.150;2023-03-23T05:42:39;7.13;;;1.45;;
67544;SDS011;54380;47.770;11.150;2023-03-23T10:20:35;12.13;;;2.22;;
67544;SDS011;54380;47.770;11.150;2023-03-23T10:23:23;8.65;;;2.13;;
67544;SDS011;54380;47.770;11.150;2023-03-23T10:26:26;10.10;;;1.98;;
67544;SDS011;54380;47.770;11.150;2023-03-23T10:29:01;10.13;;;2.03;;
67544;SDS011;54380;47.770;11.150;2023-03-23T10:31:37;11.65;;;1.52;;
67544;SDS011;54380;47.770;11.150;2023-03-23T11:00:26;9.18;;;2.08;;
67544;SDS011;54380;47.770;11.150;2023-03-23T11:03:00;13.38;;;2.42;;
67544;SDS011;54380;47.770;11.150;2023-03-23T11:05:34;9.02;;;1.65;;
67544;SDS011;54380;47.770;11.150;2023-03-23T11:08:11;7.85;;;1.65;;
67544;SDS011;54380;47.770;11.150;2023-03-23T11:10:39;9.60;;;1.80;;
67544;SDS011;54380;47.770;11.150;2023-03-23T11:13:11;10.57;;;2.28;;
67544;SDS011;54380;47.770;11.150;2023-03-23T11:15:39;9.10;;;1.90;;
67544;SDS011;54380;47.770;11.150;2023-03-23T11:18:06;7.93;;;1.30;;
67544;SDS011;54380;47.770;11.150;2023-03-23T11:20:36;8.57;;;1.85;;
67544;SDS011;54380;47.770;11.150;2023-03-23T11:23:09;11.05;;;2.97;;
67544;SDS011;54380;47.770;11.150;2023-03-23T11:25:52;9.23;;;1.60;;
67544;SDS011;54380;47.770;11.150;2023-03-23T11:28:28;8.18;;;1.70;;
67544;SDS011;54380;47.770;11.150;2023-03-23T11:30:57;9.30;;;1.73;;
67544;SDS011;54380;47.770;11.150;2023-03-23T11:33:28;7.75;;;1.63;;
67544;SDS011;54380;47.770;11.150;2023-03-23T11:35:54;9.75;;;2.08;;
67544;SDS011;54380;47.770;11.150;2023-03-23T11:38:21;10.05;;;2.00;;
67544;SDS011;54380;47.770;11.150;2023-03-23T11:40:53;8.52;;;1.70;;
67544;SDS011;54380;47.770;11.150;2023-03-23T11:43:21;9.38;;;1.95;;
67544;SDS011;54380;47.770;11.150;2023-03-23T11:45:51;11.90;;;2.28;;
67544;SDS011;54380;47.770;11.150;2023-03-23T11:48:26;7.95;;;1.70;;
67544;SDS011;54380;47.770;11.150;2023-03-23T11:50:59;10.50;;;1.95;;
67544;SDS011;54380;47.770;11.150;2023-03-23T11:53:31;9.43;;;1.70;;
67544;SDS011;54380;47.770;11.150;2023-03-23T11:56:08;11.32;;;2.22;;
67544;SDS011;54380;47.770;11.150;2023-03-23T11:58:40;9.75;;;2.05;;
67544;SDS011;54380;47.770;11.150;2023-03-23T12:01:09;8.65;;;1.42;;
67544;SDS011;54380;47.770;11.150;2023-03-23T12:06:41;7.70;;;1.55;;
67544;SDS011;54380;47.770;11.150;2023-03-23T12:09:24;7.40;;;1.33;;
67544;SDS011;54380;47.770;11.150;2023-03-23T12:12:05;11.38;;;1.92;;
67544;SDS011;54380;47.770;11.150;2023-03-23T12:14:42;13.05;;;1.92;;
67544;SDS011;54380;47.770;11.150;2023-03-23T12:17:17;7.25;;;1.27;;
67544;SDS011;54380;47.770;11.150;2023-03-23T12:19:52;9.38;;;1.88;;
67544;SDS011;54380;47.770;11.150;2023-03-23T12:22:42;8.15;;;1.55;;
67544;SDS011;54380;47.770;11.150;2023-03-23T12:25:30;7.55;;;1.33;;
67544;SDS011;54380;47.770;11.150;2023-03-23T12:28:25;8.60;;;1.20;;
67544;SDS011;54380;47.770;11.150;2023-03-23T12:31:01;6.68;;;0.95;;
67544;SDS011;54380;47.770;11.150;2023-03-23T12:33:36;8.10;;;1.20;;
67544;SDS011;54380;47.770;11.150;2023-03-23T12:36:16;8.98;;;1.10;;
67544;SDS011;54380;47.770;11.150;2023-03-23T12:38:59;8.98;;;1.23;;
67544;SDS011;54380;47.770;11.150;2023-03-23T12:41:37;7.15;;;1.00;;
67544;SDS011;54380;47.770;11.150;2023-03-23T12:44:14;6.43;;;1.38;;
67544;SDS011;54380;47.770;11.150;2023-03-23T12:46:55;11.02;;;2.28;;
67544;SDS011;54380;47.770;11.150;2023-03-23T12:49:31;6.95;;;1.33;;
67544;SDS011;54380;47.770;11.150;2023-03-23T12:52:02;6.63;;;0.80;;
67544;SDS011;54380;47.770;11.150;2023-03-23T12:54:38;7.95;;;1.30;;
67544;SDS011;54380;47.770;11.150;2023-03-23T12:57:10;6.38;;;1.00;;
67544;SDS011;54380;47.770;11.150;2023-03-23T12:59:40;5.95;;;1.00;;
67544;SDS011;54380;47.770;11.150;2023-03-23T13:02:13;6.95;;;1.10;;
67544;SDS011;54380;47.770;11.150;2023-03-23T13:04:46;6.90;;;1.13;;
67544;SDS011;54380;47.770;11.150;2023-03-23T13:07:17;6.78;;;1.27;;
67544;SDS011;54380;47.770;11.150;2023-03-23T13:09:50;9.20;;;1.73;;
67544;SDS011;54380;47.770;11.150;2023-03-23T13:12:20;7.60;;;2.35;;
67544;SDS011;54380;47.770;11.150;2023-03-23T13:14:50;7.43;;;1.27;;
67544;SDS011;54380;47.770;11.150;2023-03-23T13:17:28;7.28;;;0.98;;
67544;SDS011;54380;47.770;11.150;2023-03-23T13:20:13;8.23;;;0.98;;
67544;SDS011;54380;47.770;11.150;2023-03-23T13:22:50;6.68;;;0.90;;
67544;SDS011;54380;47.770;11.150;2023-03-23T13:25:23;7.13;;;0.90;;
67544;SDS011;54380;47.770;11.150;2023-03-23T13:30:28;7.72;;;1.42;;
67544;SDS011;54380;47.770;11.150;2023-03-23T13:33:02;5.13;;;0.80;;
67544;SDS011;54380;47.770;11.150;2023-03-23T13:35:33;5.63;;;0.90;;
67544;SDS011;54380;47.770;11.150;2023-03-23T13:38:01;7.45;;;1.23;;
67544;SDS011;54380;47.770;11.150;2023-03-23T13:40:40;9.23;;;1.52;;
67544;SDS011;54380;47.770;11.150;2023-03-23T13:43:08;8.32;;;1.60;;
67544;SDS011;54380;47.770;11.150;2023-03-23T13:45:42;6.95;;;1.63;;
67544;SDS011;54380;47.770;11.150;2023-03-23T13:48:19;6.07;;;1.20;;
67544;SDS011;54380;47.770;11.150;2023-03-23T13:50:53;10.43;;;2.67;;
67544;SDS011;54380;47.770;11.150;2023-03-23T13:53:22;9.02;;;1.77;;
67544;SDS011;54380;47.770;11.150;2023-03-23T13:55:51;18.27;;;2.88;;
67544;SDS011;54380;47.770;11.150;2023-03-23T13:58:29;5.97;;;0.80;;
67544;SDS011;54380;47.770;11.150;2023-03-23T14:01:09;5.07;;;0.80;;
67544;SDS011;54380;47.770;11.150;2023-03-23T14:03:40;6.63;;;0.98;;
67544;SDS011;54380;47.770;11.150;2023-03-23T14:06:10;6.95;;;1.20;;
67544;SDS011;54380;47.770;11.150;2023-03-23T14:09:03;7.15;;;1.10;;
67544;SDS011;54380;47.770;11.150;2023-03-23T14:11:31;7.55;;;1.20;;
67544;SDS011;54380;47.770;11.150;2023-03-23T14:14:13;8.13;;;1.33;;
67544;SDS011;54380;47.770;11.150;2023-03-23T14:16:41;7.43;;;0.90;;
67544;SDS011;54380;47.770;11.150;2023-03-23T14:19:17;6.85;;;1.02;;
67544;SDS011;54380;47.770;11.150;2023-03-23T14:21:49;9.48;;;1.30;;
67544;SDS011;54380;47.770;11.150;2023-03-23T14:24:16;6.68;;;1.17;;
67544;SDS011;54380;47.770;11.150;2023-03-23T14:26:44;5.05;;;0.77;;
67544;SDS011;54380;47.770;11.150;2023-03-23T14:29:12;7.22;;;0.98;;
67544;SDS011;54380;47.770;11.150;2023-03-23T14:31:38;5.75;;;0.73;;
67544;SDS011;54380;47.770;11.150;2023-03-23T14:34:10;4.22;;;0.68;;
67544;SDS011;54380;47.770;11.150;2023-03-23T14:36:41;7.13;;;1.40;;
67544;SDS011;54380;47.770;11.150;2023-03-23T14:39:12;6.03;;;0.80;;
67544;SDS011;54380;47.770;11.150;2023-03-23T14:41:42;6.75;;;1.15;;
67544;SDS011;54380;47.770;11.150;2023-03-23T14:44:18;7.72;;;1.23;;
67544;SDS011;54380;47.770;11.150;2023-03-23T14:46:48;7.97;;;1.00;;
67544;SDS011;54380;47.770;11.150;2023-03-23T14:49:16;10.15;;;1.23;;
67544;SDS011;54380;47.770;11.150;2023-03-23T14:51:51;6.97;;;1.30;;
67544;SDS011;54380;47.770;11.150;2023-03-23T14:54:21;8.10;;;1.58;;
67544;SDS011;54380;47.770;11.150;2023-03-23T14:56:48;7.47;;;1.65;;
67544;SDS011;54380;47.770;11.150;2023-03-23T14:59:14;9.32;;;0.90;;
67544;SDS011;54380;47.770;11.150;2023-03-23T15:01:40;8.98;;;1.52;;
67544;SDS011;54380;47.770;11.150;2023-03-23T15:04:08;6.75;;;1.25;;
67544;SDS011;54380;47.770;11.150;2023-03-23T15:06:37;6.38;;;1.00;;
67544;SDS011;54380;47.770;11.150;2023-03-23T15:09:07;16.08;;;1.10;;
67544;SDS011;54380;47.770;11.150;2023-03-23T15:11:36;8.55;;;1.10;;
67544;SDS011;54380;47.770;11.150;2023-03-23T15:16:34;7.20;;;0.77;;
67544;SDS011;54380;47.770;11.150;2023-03-23T15:19:01;5.63;;;0.70;;
67544;SDS011;54380;47.770;11.150;2023-03-23T15:21:29;8.52;;;0.80;;
67544;SDS011;54380;47.770;11.150;2023-03-23T15:23:56;5.60;;;0.80;;
67544;SDS011;54380;47.770;11.150;2023-03-23T15:26:33;6.28;;;1.02;;
67544;SDS011;54380;47.770;11.150;2023-03-23T15:29:12;5.53;;;1.02;;
67544;SDS011;54380;47.770;11.150;2023-03-23T15:31:42;6.25;;;1.08;;
67544;SDS011;54380;47.770;11.150;2023-03-23T15:34:19;4.70;;;0.90;;
67544;SDS011;54380;47.770;11.150;2023-03-23T15:36:56;5.93;;;0.85;;
67544;SDS011;54380;47.770;11.150;2023-03-23T15:39:26;6.03;;;0.90;;
67544;SDS011;54380;47.770;11.150;2023-03-23T15:41:54;5.65;;;0.52;;
67544;SDS011;54380;47.770;11.150;2023-03-23T15:44:26;6.65;;;1.00;;
67544;SDS011;54380;47.770;11.150;2023-03-23T15:47:01;7.07;;;0.77;;
67544;SDS011;54380;47.770;11.150;2023-03-23T15:49:43;6.57;;;0.70;;
67544;SDS011;54380;47.770;11.150;2023-03-23T15:52:10;7.22;;;0.68;;
67544;SDS011;54380;47.770;11.150;2023-03-23T15:54:37;7.07;;;0.70;;
67544;SDS011;54380;47.770;11.150;2023-03-23T15:57:04;5.03;;;0.73;;
67544;SDS011;54380;47.770;11.150;2023-03-23T15:59:30;5.88;;;0.70;;
67544;SDS011;54380;47.770;11.150;2023-03-23T16:01:57;4.85;;;0.82;;
67544;SDS011;54380;47.770;11.150;2023-03-23T16:04:24;3.90;;;0.70;;
67544;SDS011;54380;47.770;11.150;2023-03-23T16:06:54;6.78;;;0.90;;
67544;SDS011;54380;47.770;11.150;2023-03-23T16:09:23;6.07;;;0.80;;
67544;SDS011;54380;47.770;11.150;2023-03-23T16:11:50;6.72;;;0.82;;
67544;SDS011;54380;47.770;11.150;2023-03-23T16:14:18;8.95;;;0.90;;
67544;SDS011;54380;47.770;11.150;2023-03-23T16:16:46;5.43;;;1.13;;
67544;SDS011;54380;47.770;11.150;2023-03-23T16:19:17;6.13;;;0.88;;
67544;SDS011;54380;47.770;11.150;2023-03-23T16:21:45;6.45;;;0.95;;
67544;SDS011;54380;47.770;11.150;2023-03-23T16:24:13;5.00;;;0.65;;
67544;SDS011;54380;47.770;11.150;2023-03-23T16:26:40;6.70;;;0.75;;
67544;SDS011;54380;47.770;11.150;2023-03-23T16:29:09;9.07;;;1.25;;
67544;SDS011;54380;47.770;11.150;2023-03-23T16:32:00;5.13;;;0.95;;
67544;SDS011;54380;47.770;11.150;2023-03-23T16:36:58;6.75;;;1.00;;
67544;SDS011;54380;47.770;11.150;2023-03-23T16:39:25;7.05;;;1.05;;
67544;SDS011;54380;47.770;11.150;2023-03-23T16:41:53;8.00;;;1.42;;
67544;SDS011;54380;47.770;11.150;2023-03-23T16:44:20;8.25;;;1.17;;
67544;SDS011;54380;47.770;11.150;2023-03-23T16:46:48;4.82;;;0.70;;
67544;SDS011;54380;47.770;11.150;2023-03-23T16:49:18;10.77;;;2.58;;
67544;SDS011;54380;47.770;11.150;2023-03-23T16:51:45;11.88;;;2.20;;
67544;SDS011;54380;47.770;11.150;2023-03-23T16:54:17;8.48;;;1.00;;
67544;SDS011;54380;47.770;11.150;2023-03-23T16:56:44;6.75;;;0.95;;
67544;SDS011;54380;47.770;11.150;2023-03-23T16:59:12;6.97;;;1.15;;
67544;SDS011;54380;47.770;11.150;2023-03-23T17:01:39;11.00;;;1.30;;
67544;SDS011;54380;47.770;11.150;2023-03-23T17:04:06;7.05;;;1.20;;
67544;SDS011;54380;47.770;11.150;2023-03-23T17:06:35;7.75;;;1.00;;
67544;SDS011;54380;47.770;11.150;2023-03-23T17:09:02;7.32;;;1.40;;
67544;SDS011;54380;47.770;11.150;2023-03-23T17:11:29;7.72;;;1.50;;
67544;SDS011;54380;47.770;11.150;2023-03-23T17:13:56;9.45;;;1.35;;
67544;SDS011;54380;47.770;11.150;2023-03-23T17:16:23;9.90;;;1.17;;
67544;SDS011;54380;47.770;11.150;2023-03-23T17:18:50;7.78;;;1.27;;
67544;SDS011;54380;47.770;11.150;2023-03-23T17:21:17;8.82;;;1.40;;
67544;SDS011;54380;47.770;11.150;2023-03-23T17:23:47;9.20;;;1.23;;
67544;SDS011;54380;47.770;11.150;2023-03-23T17:26:14;7.93;;;1.73;;
67544;SDS011;54380;47.770;11.150;2023-03-23T17:28:41;8.88;;;1.50;;
67544;SDS011;54380;47.770;11.150;2023-03-23T17:31:11;8.23;;;1.27;;
67544;SDS011;54380;47.770;11.150;2023-03-23T17:33:38;7.05;;;1.23;;
67544;SDS011;54380;47.770;11.150;2023-03-23T17:36:07;11.43;;;1.77;;
67544;SDS011;54380;47.770;11.150;2023-03-23T17:38:34;9.30;;;1.52;;
67544;SDS011;54380;47.770;11.150;2023-03-23T17:41:02;11.20;;;1.80;;
67544;SDS011;54380;47.770;11.150;2023-03-23T17:43:33;6.68;;;1.05;;
67544;SDS011;54380;47.770;11.150;2023-03-23T17:46:02;7.03;;;1.40;;
67544;SDS011;54380;47.770;11.150;2023-03-23T17:48:29;8.20;;;1.48;;
67544;SDS011;54380;47.770;11.150;2023-03-23T17:50:56;9.00;;;1.60;;
67544;SDS011;54380;47.770;11.150;2023-03-23T17:53:24;7.95;;;1.52;;
67544;SDS011;54380;47.770;11.150;2023-03-23T17:55:51;10.02;;;1.70;;
67544;SDS011;54380;47.770;11.150;2023-03-23T17:58:20;9.77;;;1.65;;
67544;SDS011;54380;47.770;11.150;2023-03-23T18:03:14;9.20;;;2.70;;
67544;SDS011;54380;47.770;11.150;2023-03-23T18:05:41;13.20;;;2.20;;
67544;SDS011;54380;47.770;11.150;2023-03-23T18:08:08;9.88;;;1.75;;
67544;SDS011;54380;47.770;11.150;2023-03-23T18:10:37;12.05;;;2.08;;
67544;SDS011;54380;47.770;11.150;2023-03-23T18:13:06;10.32;;;1.92;;
67544;SDS011;54380;47.770;11.150;2023-03-23T18:15:35;10.63;;;1.83;;
67544;SDS011;54380;47.770;11.150;2023-03-23T18:18:03;13.10;;;2.95;;
67544;SDS011;54380;47.770;11.150;2023-03-23T18:20:30;17.17;;;5.25;;
67544;SDS011;54380;47.770;11.150;2023-03-23T18:22:57;14.32;;;4.43;;
67544;SDS011;54380;47.770;11.150;2023-03-23T18:25:24;12.88;;;3.65;;
67544;SDS011;54380;47.770;11.150;2023-03-23T18:27:51;14.50;;;3.53;;
67544;SDS011;54380;47.770;11.150;2023-03-23T18:30:18;15.23;;;4.63;;
67544;SDS011;54380;47.770;11.150;2023-03-23T18:35:45;14.38;;;3.75;;
67544;SDS011;54380;47.770;11.150;2023-03-23T18:38:13;17.25;;;5.18;;
67544;SDS011;54380;47.770;11.150;2023-03-23T18:40:41;16.48;;;5.47;;
67544;SDS011;54380;47.770;11.150;2023-03-23T18:43:10;20.42;;;8.38;;
67544;SDS011;54380;47.770;11.150;2023-03-23T18:45:37;21.95;;;7.35;;
67544;SDS011;54380;47.770;11.150;2023-03-23T18:48:07;21.75;;;6.45;;
67544;SDS011;54380;47.770;11.150;2023-03-23T18:50:35;16.05;;;5.70;;
67544;SDS011;54380;47.770;11.150;2023-03-23T18:53:02;15.18;;;5.22;;
67544;SDS011;54380;47.770;11.150;2023-03-23T18:55:29;16.80;;;5.50;;
67544;SDS011;54380;47.770;11.150;2023-03-23T18:58:03;17.98;;;3.40;;
67544;SDS011;54380;47.770;11.150;2023-03-23T19:00:32;12.85;;;3.28;;
67544;SDS011;54380;47.770;11.150;2023-03-23T19:03:00;15.15;;;3.22;;
67544;SDS011;54380;47.770;11.150;2023-03-23T19:05:29;12.30;;;2.60;;
67544;SDS011;54380;47.770;11.150;2023-03-23T19:07:57;12.15;;;2.60;;
67544;SDS011;54380;47.770;11.150;2023-03-23T19:10:24;11.63;;;3.00;;
67544;SDS011;54380;47.770;11.150;2023-03-23T19:12:52;13.05;;;2.08;;
67544;SDS011;54380;47.770;11.150;2023-03-23T19:15:19;10.27;;;2.15;;
67544;SDS011;54380;47.770;11.150;2023-03-23T19:17:47;11.80;;;2.85;;
67544;SDS011;54380;47.770;11.150;2023-03-23T19:20:21;11.68;;;3.25;;
67544;SDS011;54380;47.770;11.150;2023-03-23T19:22:58;14.27;;;3.72;;
67544;SDS011;54380;47.770;11.150;2023-03-23T19:27:52;14.45;;;3.67;;
67544;SDS011;54380;47.770;11.150;2023-03-23T19:30:22;10.68;;;2.50;;
67544;SDS011;54380;47.770;11.150;2023-03-23T19:32:49;15.70;;;2.63;;
67544;SDS011;54380;47.770;11.150;2023-03-23T19:35:16;11.30;;;2.75;;
67544;SDS011;54380;47.770;11.150;2023-03-23T19:37:44;12.95;;;3.45;;
67544;SDS011;54380;47.770;11.150;2023-03-23T19:40:13;16.15;;;4.40;;
67544;SDS011;54380;47.770;11.150;2023-03-23T19:42:59;11.05;;;2.92;;
67544;SDS011;54380;47.770;11.150;2023-03-23T19:45:26;13.48;;;3.72;;
67544;SDS011;54380;47.770;11.150;2023-03-23T19:47:54;16.88;;;3.72;;
67544;SDS011;54380;47.770;11.150;2023-03-23T19:50:25;17.05;;;3.25;;
67544;SDS011;54380;47.770;11.150;2023-03-23T19:52:52;12.75;;;3.67;;
67544;SDS011;54380;47.770;11.150;2023-03-23T19:55:20;11.05;;;2.70;;
67544;SDS011;54380;47.770;11.150;2023-03-23T19:57:48;10.80;;;2.60;;
67544;SDS011;54380;47.770;11.150;2023-03-23T20:00:16;11.63;;;2.70;;
67544;SDS011;54380;47.770;11.150;2023-03-23T20:02:43;9.55;;;2.08;;
67544;SDS011;54380;47.770;11.150;2023-03-23T20:05:12;8.65;;;1.80;;
67544;SDS011;54380;47.770;11.150;2023-03-23T20:07:42;12.43;;;2.42;;
67544;SDS011;54380;47.770;11.150;2023-03-23T20:10:15;11.45;;;2.63;;
67544;SDS011;54380;47.770;11.150;2023-03-23T20:12:46;9.20;;;1.75;;
67544;SDS011;54380;47.770;11.150;2023-03-23T20:15:19;10.13;;;1.90;;
67544;SDS011;54380;47.770;11.150;2023-03-23T20:17:47;11.13;;;1.92;;
67544;SDS011;54380;47.770;11.150;2023-03-23T20:20:15;11.00;;;2.22;;
67544;SDS011;54380;47.770;11.150;2023-03-23T20:22:45;11.20;;;2.50;;
67544;SDS011;54380;47.770;11.150;2023-03-23T20:25:14;10.18;;;2.25;;
67544;SDS011;54380;47.770;11.150;2023-03-23T20:27:44;10.50;;;2.55;;